Allison, North Carolina
Current Conditions -  °F | °C
As of 6:53 AM on Thursday 18 Dec 2014 (Local Time) from KDAN Reporting Station
Clear Clear  
Wind Chill: 27°   Ceiling: Unl
Heat Index: 32°   Visibility: 10mi
Dew Point: 23°   Wind: 5mph
Humidity: 69%   Direction: 50°NE
Pressure: 30.16"   Gusts: NA
Location:  36.4355°N, 79.5464°W
Report Text: KDAN 181153Z AUTO 05004KT 10SM CLR 00/M05 A3016 RMK AO2 SLP211 T00001050 10067 21006 51012
Loading
Personal Weather Stations






























Interactive Weather Map New forecast layout! Learn more

10-Day Weather Forecast

Advertisements
Track Severe Weather on mobile